CheckWX is a tool to help pilots better visualize weather data.  It is not intended as a substitute for an official pre-flight weather briefing.

16:37:13 UTC

RJBB METAR
Kansai International Airport
Osaka, Japan
Current

37 mins ago

RJBB 121600Z AUTO 07009KT 9999 -RA NSC 23/17 Q1010 NOSIG
Observed
Jul-12 @ 16:00 UTC
Wind
  • 070° at 9 KTS
Visibility
10,000+ meters
Flight Rules
VFR
Conditions
Light Rain
Cloud Levels
  • Clear skies
Temperature
23°C / 73°F
Dewpoint
17°C / 63°F
Humidity
69%
Altimeter
29.82" Hg
Pressure
1009.92 hPa
Previous

1 hour ago

RJBB 121530Z AUTO 08011KT 9999 NSC 23/17 Q1009 NOSIG
Observed
Jul-12 @ 15:30 UTC
Wind
  • 080° at 11 KTS
Visibility
10,000+ meters
Flight Rules
VFR
Cloud Levels
  • Clear skies
Temperature
23°C / 73°F
Dewpoint
17°C / 63°F
Humidity
69%
Altimeter
29.79" Hg
Pressure
1008.92 hPa
Previous

2 hours ago

RJBB 121500Z AUTO 08010KT 9999 NSC 23/17 Q1010 NOSIG
Observed
Jul-12 @ 15:00 UTC
Wind
  • 080° at 10 KTS
Visibility
10,000+ meters
Flight Rules
VFR
Cloud Levels
  • Clear skies
Temperature
23°C / 73°F
Dewpoint
17°C / 63°F
Humidity
69%
Altimeter
29.82" Hg
Pressure
1009.92 hPa